sensor_id;sensor_type;location;lat;lon;timestamp;P1;durP1;ratioP1;P2;durP2;ratioP2
67130;SDS011;54051;53.464;49.532;2023-04-03T00:00:08;14.65;;;5.93;;
67130;SDS011;54051;53.464;49.532;2023-04-03T00:02:35;13.27;;;5.63;;
67130;SDS011;54051;53.464;49.532;2023-04-03T00:05:01;13.85;;;5.53;;
67130;SDS011;54051;53.464;49.532;2023-04-03T00:07:28;17.23;;;6.57;;
67130;SDS011;54051;53.464;49.532;2023-04-03T00:09:54;13.52;;;6.88;;
67130;SDS011;54051;53.464;49.532;2023-04-03T00:12:20;15.43;;;6.82;;
67130;SDS011;54051;53.464;49.532;2023-04-03T00:14:47;18.13;;;7.32;;
67130;SDS011;54051;53.464;49.532;2023-04-03T00:17:13;17.33;;;7.55;;
67130;SDS011;54051;53.464;49.532;2023-04-03T00:19:39;13.55;;;5.63;;
67130;SDS011;54051;53.464;49.532;2023-04-03T00:22:06;13.43;;;6.10;;
67130;SDS011;54051;53.464;49.532;2023-04-03T00:24:32;13.02;;;4.20;;
67130;SDS011;54051;53.464;49.532;2023-04-03T00:26:58;13.40;;;4.90;;
67130;SDS011;54051;53.464;49.532;2023-04-03T00:29:24;11.73;;;4.80;;
67130;SDS011;54051;53.464;49.532;2023-04-03T00:31:51;12.60;;;5.47;;
67130;SDS011;54051;53.464;49.532;2023-04-03T00:34:17;9.23;;;4.30;;
67130;SDS011;54051;53.464;49.532;2023-04-03T00:36:43;13.73;;;4.95;;
67130;SDS011;54051;53.464;49.532;2023-04-03T00:39:09;8.50;;;3.50;;
67130;SDS011;54051;53.464;49.532;2023-04-03T00:41:36;11.15;;;3.80;;
67130;SDS011;54051;53.464;49.532;2023-04-03T00:44:18;12.27;;;5.03;;
67130;SDS011;54051;53.464;49.532;2023-04-03T00:46:53;17.40;;;6.55;;
67130;SDS011;54051;53.464;49.532;2023-04-03T00:49:19;12.88;;;5.22;;
67130;SDS011;54051;53.464;49.532;2023-04-03T00:51:46;10.60;;;3.85;;
67130;SDS011;54051;53.464;49.532;2023-04-03T00:54:13;10.60;;;3.00;;
67130;SDS011;54051;53.464;49.532;2023-04-03T00:56:39;7.30;;;3.13;;
67130;SDS011;54051;53.464;49.532;2023-04-03T00:59:07;11.90;;;4.30;;
67130;SDS011;54051;53.464;49.532;2023-04-03T01:01:36;8.55;;;2.90;;
67130;SDS011;54051;53.464;49.532;2023-04-03T01:04:03;6.20;;;2.80;;
67130;SDS011;54051;53.464;49.532;2023-04-03T01:06:35;10.20;;;3.58;;
67130;SDS011;54051;53.464;49.532;2023-04-03T01:09:03;7.65;;;2.75;;
67130;SDS011;54051;53.464;49.532;2023-04-03T01:11:30;9.48;;;3.53;;
67130;SDS011;54051;53.464;49.532;2023-04-03T01:13:56;10.10;;;3.83;;
67130;SDS011;54051;53.464;49.532;2023-04-03T01:16:23;8.10;;;3.03;;
67130;SDS011;54051;53.464;49.532;2023-04-03T01:18:49;8.70;;;3.13;;
67130;SDS011;54051;53.464;49.532;2023-04-03T01:27:03;7.80;;;2.70;;
67130;SDS011;54051;53.464;49.532;2023-04-03T01:29:31;7.47;;;2.63;;
67130;SDS011;54051;53.464;49.532;2023-04-03T01:32:00;8.03;;;2.70;;
67130;SDS011;54051;53.464;49.532;2023-04-03T01:34:28;7.10;;;3.22;;
67130;SDS011;54051;53.464;49.532;2023-04-03T01:36:55;10.32;;;2.75;;
67130;SDS011;54051;53.464;49.532;2023-04-03T01:39:21;6.07;;;2.47;;
67130;SDS011;54051;53.464;49.532;2023-04-03T01:41:48;6.70;;;2.33;;
67130;SDS011;54051;53.464;49.532;2023-04-03T01:44:14;8.60;;;2.30;;
67130;SDS011;54051;53.464;49.532;2023-04-03T01:46:41;5.88;;;2.00;;
67130;SDS011;54051;53.464;49.532;2023-04-03T01:49:08;6.82;;;2.20;;
67130;SDS011;54051;53.464;49.532;2023-04-03T01:51:35;7.00;;;2.28;;
67130;SDS011;54051;53.464;49.532;2023-04-03T01:54:01;7.35;;;2.30;;
67130;SDS011;54051;53.464;49.532;2023-04-03T01:56:27;6.10;;;2.22;;
67130;SDS011;54051;53.464;49.532;2023-04-03T01:58:53;11.23;;;2.30;;
67130;SDS011;54051;53.464;49.532;2023-04-03T02:01:19;5.93;;;1.90;;
67130;SDS011;54051;53.464;49.532;2023-04-03T02:03:45;7.03;;;2.10;;
67130;SDS011;54051;53.464;49.532;2023-04-03T02:06:11;9.32;;;2.33;;
67130;SDS011;54051;53.464;49.532;2023-04-03T02:08:37;7.07;;;2.83;;
67130;SDS011;54051;53.464;49.532;2023-04-03T02:11:03;6.32;;;2.45;;
67130;SDS011;54051;53.464;49.532;2023-04-03T02:13:29;5.35;;;1.90;;
67130;SDS011;54051;53.464;49.532;2023-04-03T02:15:55;6.88;;;2.22;;
67130;SDS011;54051;53.464;49.532;2023-04-03T02:18:21;7.47;;;2.67;;
67130;SDS011;54051;53.464;49.532;2023-04-03T02:20:47;7.22;;;2.22;;
67130;SDS011;54051;53.464;49.532;2023-04-03T02:23:13;5.97;;;2.22;;
67130;SDS011;54051;53.464;49.532;2023-04-03T02:25:39;6.70;;;2.28;;
67130;SDS011;54051;53.464;49.532;2023-04-03T02:28:05;9.55;;;4.30;;
67130;SDS011;54051;53.464;49.532;2023-04-03T02:30:32;6.90;;;2.45;;
67130;SDS011;54051;53.464;49.532;2023-04-03T02:32:58;7.03;;;2.28;;
67130;SDS011;54051;53.464;49.532;2023-04-03T02:35:24;6.50;;;2.10;;
67130;SDS011;54051;53.464;49.532;2023-04-03T02:37:50;9.18;;;2.15;;
67130;SDS011;54051;53.464;49.532;2023-04-03T02:40:17;7.45;;;1.90;;
67130;SDS011;54051;53.464;49.532;2023-04-03T02:42:43;7.72;;;2.20;;
67130;SDS011;54051;53.464;49.532;2023-04-03T02:45:09;5.50;;;1.75;;
67130;SDS011;54051;53.464;49.532;2023-04-03T02:47:35;7.47;;;1.95;;
67130;SDS011;54051;53.464;49.532;2023-04-03T02:50:01;6.63;;;1.80;;
67130;SDS011;54051;53.464;49.532;2023-04-03T02:52:27;6.07;;;1.90;;
67130;SDS011;54051;53.464;49.532;2023-04-03T02:54:54;6.47;;;1.80;;
67130;SDS011;54051;53.464;49.532;2023-04-03T02:57:20;5.05;;;1.70;;
67130;SDS011;54051;53.464;49.532;2023-04-03T02:59:46;6.20;;;1.83;;
67130;SDS011;54051;53.464;49.532;2023-04-03T03:02:12;5.47;;;1.90;;
67130;SDS011;54051;53.464;49.532;2023-04-03T03:04:38;5.47;;;1.95;;
67130;SDS011;54051;53.464;49.532;2023-04-03T03:07:04;4.80;;;1.88;;
67130;SDS011;54051;53.464;49.532;2023-04-03T03:09:30;5.97;;;1.70;;
67130;SDS011;54051;53.464;49.532;2023-04-03T03:11:57;5.50;;;1.90;;
67130;SDS011;54051;53.464;49.532;2023-04-03T03:14:26;4.40;;;1.67;;
67130;SDS011;54051;53.464;49.532;2023-04-03T03:16:52;6.63;;;2.10;;
67130;SDS011;54051;53.464;49.532;2023-04-03T03:19:19;5.60;;;2.22;;
67130;SDS011;54051;53.464;49.532;2023-04-03T03:21:45;5.72;;;2.20;;
67130;SDS011;54051;53.464;49.532;2023-04-03T03:24:11;5.63;;;2.03;;
67130;SDS011;54051;53.464;49.532;2023-04-03T03:26:37;6.50;;;2.03;;
67130;SDS011;54051;53.464;49.532;2023-04-03T03:29:03;7.80;;;1.92;;
67130;SDS011;54051;53.464;49.532;2023-04-03T03:31:29;6.30;;;2.10;;
67130;SDS011;54051;53.464;49.532;2023-04-03T03:33:55;7.57;;;2.33;;
67130;SDS011;54051;53.464;49.532;2023-04-03T03:36:21;7.93;;;2.20;;
67130;SDS011;54051;53.464;49.532;2023-04-03T03:38:47;6.97;;;2.00;;
67130;SDS011;54051;53.464;49.532;2023-04-03T03:41:13;5.50;;;2.25;;
67130;SDS011;54051;53.464;49.532;2023-04-03T03:43:39;5.00;;;1.90;;
67130;SDS011;54051;53.464;49.532;2023-04-03T03:46:06;6.35;;;1.95;;
67130;SDS011;54051;53.464;49.532;2023-04-03T03:48:32;9.15;;;2.30;;
67130;SDS011;54051;53.464;49.532;2023-04-03T03:50:58;5.05;;;1.92;;
67130;SDS011;54051;53.464;49.532;2023-04-03T03:53:25;6.82;;;2.05;;
67130;SDS011;54051;53.464;49.532;2023-04-03T03:55:51;7.55;;;2.20;;
67130;SDS011;54051;53.464;49.532;2023-04-03T03:58:17;7.00;;;2.17;;
67130;SDS011;54051;53.464;49.532;2023-04-03T04:00:43;6.75;;;2.00;;
67130;SDS011;54051;53.464;49.532;2023-04-03T04:03:09;7.30;;;2.08;;
67130;SDS011;54051;53.464;49.532;2023-04-03T04:05:36;4.97;;;1.70;;
67130;SDS011;54051;53.464;49.532;2023-04-03T04:08:02;6.88;;;1.95;;
67130;SDS011;54051;53.464;49.532;2023-04-03T04:10:28;6.93;;;2.00;;
67130;SDS011;54051;53.464;49.532;2023-04-03T04:12:54;7.72;;;1.90;;
67130;SDS011;54051;53.464;49.532;2023-04-03T04:15:21;9.27;;;1.98;;
67130;SDS011;54051;53.464;49.532;2023-04-03T04:20:14;4.97;;;1.70;;
67130;SDS011;54051;53.464;49.532;2023-04-03T04:22:40;8.50;;;1.92;;
67130;SDS011;54051;53.464;49.532;2023-04-03T04:25:07;7.93;;;2.00;;
67130;SDS011;54051;53.464;49.532;2023-04-03T04:30:00;6.97;;;2.15;;
67130;SDS011;54051;53.464;49.532;2023-04-03T04:32:26;7.00;;;2.17;;
67130;SDS011;54051;53.464;49.532;2023-04-03T04:34:52;7.23;;;2.20;;
67130;SDS011;54051;53.464;49.532;2023-04-03T04:37:19;10.27;;;2.33;;
67130;SDS011;54051;53.464;49.532;2023-04-03T04:39:45;7.03;;;2.30;;
67130;SDS011;54051;53.464;49.532;2023-04-03T04:42:11;7.67;;;2.30;;
67130;SDS011;54051;53.464;49.532;2023-04-03T04:44:38;6.25;;;2.38;;
67130;SDS011;54051;53.464;49.532;2023-04-03T04:47:05;9.25;;;2.55;;
67130;SDS011;54051;53.464;49.532;2023-04-03T04:49:31;7.68;;;2.33;;
67130;SDS011;54051;53.464;49.532;2023-04-03T04:51:57;6.18;;;1.95;;
67130;SDS011;54051;53.464;49.532;2023-04-03T04:54:24;10.75;;;1.88;;
67130;SDS011;54051;53.464;49.532;2023-04-03T04:56:50;7.50;;;1.95;;
67130;SDS011;54051;53.464;49.532;2023-04-03T04:59:16;7.85;;;2.30;;
67130;SDS011;54051;53.464;49.532;2023-04-03T05:01:42;6.32;;;2.13;;
67130;SDS011;54051;53.464;49.532;2023-04-03T05:04:10;6.43;;;2.10;;
67130;SDS011;54051;53.464;49.532;2023-04-03T05:06:38;6.63;;;2.05;;
67130;SDS011;54051;53.464;49.532;2023-04-03T05:09:04;7.15;;;2.33;;
67130;SDS011;54051;53.464;49.532;2023-04-03T05:11:31;9.98;;;2.08;;
67130;SDS011;54051;53.464;49.532;2023-04-03T05:13:57;7.25;;;2.10;;
67130;SDS011;54051;53.464;49.532;2023-04-03T05:16:23;6.05;;;2.20;;
67130;SDS011;54051;53.464;49.532;2023-04-03T05:18:50;6.57;;;2.00;;
67130;SDS011;54051;53.464;49.532;2023-04-03T05:21:17;6.00;;;2.08;;
67130;SDS011;54051;53.464;49.532;2023-04-03T05:23:44;7.20;;;2.10;;
67130;SDS011;54051;53.464;49.532;2023-04-03T05:26:10;8.55;;;2.20;;
67130;SDS011;54051;53.464;49.532;2023-04-03T05:28:36;6.72;;;2.00;;
67130;SDS011;54051;53.464;49.532;2023-04-03T05:31:02;6.90;;;2.20;;
67130;SDS011;54051;53.464;49.532;2023-04-03T05:33:29;9.13;;;2.33;;
67130;SDS011;54051;53.464;49.532;2023-04-03T05:35:55;7.32;;;2.20;;
67130;SDS011;54051;53.464;49.532;2023-04-03T05:40:47;14.27;;;2.35;;
67130;SDS011;54051;53.464;49.532;2023-04-03T05:43:21;9.75;;;2.45;;
67130;SDS011;54051;53.464;49.532;2023-04-03T05:45:48;8.85;;;2.47;;
67130;SDS011;54051;53.464;49.532;2023-04-03T05:48:14;12.25;;;2.50;;
67130;SDS011;54051;53.464;49.532;2023-04-03T05:50:40;7.55;;;2.22;;
67130;SDS011;54051;53.464;49.532;2023-04-03T05:53:12;8.68;;;2.25;;
67130;SDS011;54051;53.464;49.532;2023-04-03T05:55:44;9.32;;;2.40;;
67130;SDS011;54051;53.464;49.532;2023-04-03T05:58:11;10.18;;;2.10;;
67130;SDS011;54051;53.464;49.532;2023-04-03T06:00:37;7.45;;;2.60;;
67130;SDS011;54051;53.464;49.532;2023-04-03T06:03:04;7.63;;;2.28;;
67130;SDS011;54051;53.464;49.532;2023-04-03T06:05:30;8.18;;;2.33;;
67130;SDS011;54051;53.464;49.532;2023-04-03T06:07:56;8.98;;;2.72;;
67130;SDS011;54051;53.464;49.532;2023-04-03T06:10:23;8.43;;;2.55;;
67130;SDS011;54051;53.464;49.532;2023-04-03T06:12:50;12.43;;;2.30;;
67130;SDS011;54051;53.464;49.532;2023-04-03T06:15:17;6.18;;;2.15;;
67130;SDS011;54051;53.464;49.532;2023-04-03T06:22:35;7.55;;;1.88;;
67130;SDS011;54051;53.464;49.532;2023-04-03T06:25:02;7.55;;;2.20;;
67130;SDS011;54051;53.464;49.532;2023-04-03T06:27:28;6.45;;;2.15;;
67130;SDS011;54051;53.464;49.532;2023-04-03T06:29:54;11.60;;;2.70;;
67130;SDS011;54051;53.464;49.532;2023-04-03T06:37:15;8.15;;;2.30;;
67130;SDS011;54051;53.464;49.532;2023-04-03T06:39:43;10.38;;;3.58;;
67130;SDS011;54051;53.464;49.532;2023-04-03T06:42:09;7.60;;;2.70;;
67130;SDS011;54051;53.464;49.532;2023-04-03T06:44:35;8.70;;;2.65;;
67130;SDS011;54051;53.464;49.532;2023-04-03T06:47:01;9.65;;;2.45;;
67130;SDS011;54051;53.464;49.532;2023-04-03T06:49:27;9.63;;;2.35;;
67130;SDS011;54051;53.464;49.532;2023-04-03T06:51:54;11.80;;;2.45;;
67130;SDS011;54051;53.464;49.532;2023-04-03T06:54:21;9.18;;;2.63;;
67130;SDS011;54051;53.464;49.532;2023-04-03T06:56:48;10.85;;;2.63;;
67130;SDS011;54051;53.464;49.532;2023-04-03T07:04:07;9.50;;;2.10;;
67130;SDS011;54051;53.464;49.532;2023-04-03T07:06:34;11.25;;;2.38;;
67130;SDS011;54051;53.464;49.532;2023-04-03T07:09:01;12.63;;;2.40;;
67130;SDS011;54051;53.464;49.532;2023-04-03T07:13:53;9.38;;;2.45;;
67130;SDS011;54051;53.464;49.532;2023-04-03T07:16:19;11.45;;;2.33;;
67130;SDS011;54051;53.464;49.532;2023-04-03T07:21:12;7.63;;;2.00;;
67130;SDS011;54051;53.464;49.532;2023-04-03T07:23:39;8.90;;;2.20;;
67130;SDS011;54051;53.464;49.532;2023-04-03T07:26:05;7.65;;;2.10;;
67130;SDS011;54051;53.464;49.532;2023-04-03T07:28:32;6.82;;;2.20;;
67130;SDS011;54051;53.464;49.532;2023-04-03T07:31:05;7.72;;;2.13;;
67130;SDS011;54051;53.464;49.532;2023-04-03T07:33:37;7.78;;;2.03;;
67130;SDS011;54051;53.464;49.532;2023-04-03T07:36:05;7.57;;;2.08;;
67130;SDS011;54051;53.464;49.532;2023-04-03T07:38:33;9.05;;;1.95;;
67130;SDS011;54051;53.464;49.532;2023-04-03T07:41:01;8.63;;;2.10;;
67130;SDS011;54051;53.464;49.532;2023-04-03T07:43:27;5.60;;;1.92;;
67130;SDS011;54051;53.464;49.532;2023-04-03T07:45:53;8.75;;;2.10;;
67130;SDS011;54051;53.464;49.532;2023-04-03T07:48:21;12.13;;;2.40;;
67130;SDS011;54051;53.464;49.532;2023-04-03T07:50:48;10.38;;;2.00;;
67130;SDS011;54051;53.464;49.532;2023-04-03T07:58:10;9.13;;;2.17;;
67130;SDS011;54051;53.464;49.532;2023-04-03T08:00:37;9.07;;;2.35;;
67130;SDS011;54051;53.464;49.532;2023-04-03T08:03:04;9.93;;;2.40;;
67130;SDS011;54051;53.464;49.532;2023-04-03T08:05:31;8.07;;;2.25;;
67130;SDS011;54051;53.464;49.532;2023-04-03T08:10:23;7.40;;;2.10;;
67130;SDS011;54051;53.464;49.532;2023-04-03T08:12:49;7.88;;;2.13;;
67130;SDS011;54051;53.464;49.532;2023-04-03T08:15:15;9.45;;;1.85;;
67130;SDS011;54051;53.464;49.532;2023-04-03T08:17:41;9.60;;;2.00;;
67130;SDS011;54051;53.464;49.532;2023-04-03T08:20:09;7.90;;;2.00;;
67130;SDS011;54051;53.464;49.532;2023-04-03T08:22:36;7.97;;;2.05;;
67130;SDS011;54051;53.464;49.532;2023-04-03T08:25:02;9.45;;;2.00;;
67130;SDS011;54051;53.464;49.532;2023-04-03T08:27:28;11.20;;;2.00;;
67130;SDS011;54051;53.464;49.532;2023-04-03T08:29:55;6.78;;;1.95;;
67130;SDS011;54051;53.464;49.532;2023-04-03T08:32:22;13.07;;;2.40;;
67130;SDS011;54051;53.464;49.532;2023-04-03T08:35:02;14.02;;;2.90;;
67130;SDS011;54051;53.464;49.532;2023-04-03T08:37:29;8.80;;;2.25;;
67130;SDS011;54051;53.464;49.532;2023-04-03T08:39:56;13.85;;;2.58;;
67130;SDS011;54051;53.464;49.532;2023-04-03T08:45:09;12.48;;;2.95;;
67130;SDS011;54051;53.464;49.532;2023-04-03T08:50:42;13.55;;;2.38;;
67130;SDS011;54051;53.464;49.532;2023-04-03T08:53:14;10.20;;;2.20;;
67130;SDS011;54051;53.464;49.532;2023-04-03T08:55:45;12.23;;;2.10;;
67130;SDS011;54051;53.464;49.532;2023-04-03T08:58:15;12.55;;;2.05;;
67130;SDS011;54051;53.464;49.532;2023-04-03T09:03:16;10.27;;;1.75;;
67130;SDS011;54051;53.464;49.532;2023-04-03T09:11:09;10.55;;;2.15;;
67130;SDS011;54051;53.464;49.532;2023-04-03T09:13:49;13.10;;;2.17;;
67130;SDS011;54051;53.464;49.532;2023-04-03T09:22:11;12.18;;;3.40;;
67130;SDS011;54051;53.464;49.532;2023-04-03T09:24:40;11.77;;;3.20;;
67130;SDS011;54051;53.464;49.532;2023-04-03T09:27:09;8.88;;;2.97;;
67130;SDS011;54051;53.464;49.532;2023-04-03T09:29:41;11.80;;;3.38;;
67130;SDS011;54051;53.464;49.532;2023-04-03T09:32:28;11.95;;;3.30;;
67130;SDS011;54051;53.464;49.532;2023-04-03T09:37:48;10.38;;;2.90;;
67130;SDS011;54051;53.464;49.532;2023-04-03T09:42:52;7.57;;;2.60;;
67130;SDS011;54051;53.464;49.532;2023-04-03T09:45:38;9.15;;;3.05;;
67130;SDS011;54051;53.464;49.532;2023-04-03T09:53:29;13.40;;;3.75;;
67130;SDS011;54051;53.464;49.532;2023-04-03T09:55:55;12.05;;;3.33;;
67130;SDS011;54051;53.464;49.532;2023-04-03T09:58:27;17.55;;;5.55;;
67130;SDS011;54051;53.464;49.532;2023-04-03T10:00:55;16.10;;;4.50;;
67130;SDS011;54051;53.464;49.532;2023-04-03T10:03:31;27.10;;;11.48;;
67130;SDS011;54051;53.464;49.532;2023-04-03T10:06:02;25.73;;;11.48;;
67130;SDS011;54051;53.464;49.532;2023-04-03T10:08:32;17.80;;;6.70;;
67130;SDS011;54051;53.464;49.532;2023-04-03T10:11:09;11.90;;;3.10;;
67130;SDS011;54051;53.464;49.532;2023-04-03T10:13:51;12.85;;;4.55;;
67130;SDS011;54051;53.464;49.532;2023-04-03T10:16:24;14.95;;;5.53;;
67130;SDS011;54051;53.464;49.532;2023-04-03T10:19:25;17.45;;;6.50;;
67130;SDS011;54051;53.464;49.532;2023-04-03T10:24:48;16.55;;;5.90;;
67130;SDS011;54051;53.464;49.532;2023-04-03T10:27:26;12.13;;;3.33;;
67130;SDS011;54051;53.464;49.532;2023-04-03T10:32:55;9.40;;;1.88;;
67130;SDS011;54051;53.464;49.532;2023-04-03T10:38:15;12.15;;;2.45;;
67130;SDS011;54051;53.464;49.532;2023-04-03T10:41:04;9.63;;;2.00;;
67130;SDS011;54051;53.464;49.532;2023-04-03T10:43:56;7.90;;;2.20;;
67130;SDS011;54051;53.464;49.532;2023-04-03T10:51:47;9.55;;;2.35;;
67130;SDS011;54051;53.464;49.532;2023-04-03T10:54:24;8.85;;;2.10;;
67130;SDS011;54051;53.464;49.532;2023-04-03T10:57:11;9.38;;;2.10;;
67130;SDS011;54051;53.464;49.532;2023-04-03T10:59:51;9.63;;;2.17;;
67130;SDS011;54051;53.464;49.532;2023-04-03T11:02:37;10.45;;;2.08;;
67130;SDS011;54051;53.464;49.532;2023-04-03T11:07:59;10.27;;;2.47;;
67130;SDS011;54051;53.464;49.532;2023-04-03T11:10:35;9.68;;;2.00;;
67130;SDS011;54051;53.464;49.532;2023-04-03T11:13:11;12.95;;;2.42;;
67130;SDS011;54051;53.464;49.532;2023-04-03T11:15:42;16.50;;;2.65;;
67130;SDS011;54051;53.464;49.532;2023-04-03T11:18:19;11.40;;;1.98;;
67130;SDS011;54051;53.464;49.532;2023-04-03T11:23:53;11.38;;;2.40;;
67130;SDS011;54051;53.464;49.532;2023-04-03T11:26:31;12.95;;;2.38;;
67130;SDS011;54051;53.464;49.532;2023-04-03T11:29:04;8.60;;;2.10;;
67130;SDS011;54051;53.464;49.532;2023-04-03T11:34:34;7.75;;;1.85;;
67130;SDS011;54051;53.464;49.532;2023-04-03T11:37:29;6.90;;;1.75;;
67130;SDS011;54051;53.464;49.532;2023-04-03T11:39:59;14.18;;;2.17;;
67130;SDS011;54051;53.464;49.532;2023-04-03T11:42:40;11.55;;;2.22;;
67130;SDS011;54051;53.464;49.532;2023-04-03T11:47:59;7.53;;;2.03;;
67130;SDS011;54051;53.464;49.532;2023-04-03T11:53:00;12.52;;;2.17;;
67130;SDS011;54051;53.464;49.532;2023-04-03T12:06:42;8.95;;;1.60;;
67130;SDS011;54051;53.464;49.532;2023-04-03T12:08:47;12.90;;;2.13;;
67130;SDS011;54051;53.464;49.532;2023-04-03T12:11:28;12.73;;;1.98;;
67130;SDS011;54051;53.464;49.532;2023-04-03T12:18:55;13.27;;;1.95;;
67130;SDS011;54051;53.464;49.532;2023-04-03T12:24:01;12.50;;;1.80;;
67130;SDS011;54051;53.464;49.532;2023-04-03T12:26:44;9.60;;;1.85;;
67130;SDS011;54051;53.464;49.532;2023-04-03T12:29:21;14.68;;;2.28;;
67130;SDS011;54051;53.464;49.532;2023-04-03T12:34:38;9.85;;;1.80;;
67130;SDS011;54051;53.464;49.532;2023-04-03T12:45:52;9.95;;;1.95;;
67130;SDS011;54051;53.464;49.532;2023-04-03T12:48:26;10.05;;;2.05;;
67130;SDS011;54051;53.464;49.532;2023-04-03T12:50:55;9.38;;;1.60;;
67130;SDS011;54051;53.464;49.532;2023-04-03T12:53:25;8.35;;;2.00;;
67130;SDS011;54051;53.464;49.532;2023-04-03T13:01:55;9.70;;;2.20;;
67130;SDS011;54051;53.464;49.532;2023-04-03T13:04:23;10.20;;;1.80;;
67130;SDS011;54051;53.464;49.532;2023-04-03T13:11:48;8.80;;;1.83;;
67130;SDS011;54051;53.464;49.532;2023-04-03T13:14:20;10.55;;;1.77;;
67130;SDS011;54051;53.464;49.532;2023-04-03T13:16:55;8.73;;;1.60;;
67130;SDS011;54051;53.464;49.532;2023-04-03T13:19:26;8.07;;;2.38;;
67130;SDS011;54051;53.464;49.532;2023-04-03T13:21:58;10.80;;;1.88;;
67130;SDS011;54051;53.464;49.532;2023-04-03T13:24:29;7.25;;;1.42;;
67130;SDS011;54051;53.464;49.532;2023-04-03T13:26:58;18.27;;;2.63;;
67130;SDS011;54051;53.464;49.532;2023-04-03T13:31:56;12.38;;;2.00;;
67130;SDS011;54051;53.464;49.532;2023-04-03T13:34:24;11.52;;;1.80;;
67130;SDS011;54051;53.464;49.532;2023-04-03T13:36:59;12.70;;;2.30;;
67130;SDS011;54051;53.464;49.532;2023-04-03T13:39:30;9.52;;;2.47;;
67130;SDS011;54051;53.464;49.532;2023-04-03T13:45:05;10.02;;;2.00;;
67130;SDS011;54051;53.464;49.532;2023-04-03T13:52:52;14.73;;;1.70;;
67130;SDS011;54051;53.464;49.532;2023-04-03T13:55:25;9.60;;;2.00;;
67130;SDS011;54051;53.464;49.532;2023-04-03T13:57:56;16.85;;;2.67;;
67130;SDS011;54051;53.464;49.532;2023-04-03T14:00:37;12.60;;;2.75;;
67130;SDS011;54051;53.464;49.532;2023-04-03T14:03:22;10.25;;;2.30;;
67130;SDS011;54051;53.464;49.532;2023-04-03T14:05:50;11.38;;;2.13;;
67130;SDS011;54051;53.464;49.532;2023-04-03T14:08:17;9.68;;;2.30;;
67130;SDS011;54051;53.464;49.532;2023-04-03T14:10:43;10.20;;;2.70;;
67130;SDS011;54051;53.464;49.532;2023-04-03T14:13:14;11.90;;;3.50;;
67130;SDS011;54051;53.464;49.532;2023-04-03T14:15:41;12.80;;;2.15;;
67130;SDS011;54051;53.464;49.532;2023-04-03T14:18:12;8.23;;;1.67;;
67130;SDS011;54051;53.464;49.532;2023-04-03T14:20:39;7.35;;;1.77;;
67130;SDS011;54051;53.464;49.532;2023-04-03T14:23:06;11.77;;;2.13;;
67130;SDS011;54051;53.464;49.532;2023-04-03T14:25:32;13.82;;;1.98;;
67130;SDS011;54051;53.464;49.532;2023-04-03T14:27:58;12.87;;;1.87;;
67130;SDS011;54051;53.464;49.532;2023-04-03T14:32:53;13.98;;;2.20;;
67130;SDS011;54051;53.464;49.532;2023-04-03T14:35:20;12.52;;;2.10;;
67130;SDS011;54051;53.464;49.532;2023-04-03T14:37:50;15.73;;;3.60;;
67130;SDS011;54051;53.464;49.532;2023-04-03T14:41:03;13.15;;;2.30;;
67130;SDS011;54051;53.464;49.532;2023-04-03T14:43:29;9.33;;;1.90;;
67130;SDS011;54051;53.464;49.532;2023-04-03T14:45:55;13.52;;;2.20;;
67130;SDS011;54051;53.464;49.532;2023-04-03T14:48:25;14.18;;;2.35;;
67130;SDS011;54051;53.464;49.532;2023-04-03T14:50:53;13.43;;;2.30;;
67130;SDS011;54051;53.464;49.532;2023-04-03T14:53:20;14.45;;;2.65;;
67130;SDS011;54051;53.464;49.532;2023-04-03T14:55:50;15.52;;;2.20;;
67130;SDS011;54051;53.464;49.532;2023-04-03T15:00:45;14.90;;;1.75;;
67130;SDS011;54051;53.464;49.532;2023-04-03T15:05:39;11.60;;;2.50;;
67130;SDS011;54051;53.464;49.532;2023-04-03T15:08:08;14.68;;;5.72;;
67130;SDS011;54051;53.464;49.532;2023-04-03T15:10:48;17.42;;;4.97;;
67130;SDS011;54051;53.464;49.532;2023-04-03T15:15:42;20.25;;;4.40;;
67130;SDS011;54051;53.464;49.532;2023-04-03T15:18:10;18.27;;;4.07;;
67130;SDS011;54051;53.464;49.532;2023-04-03T15:20:42;18.65;;;3.45;;
67130;SDS011;54051;53.464;49.532;2023-04-03T15:23:09;12.13;;;2.88;;
67130;SDS011;54051;53.464;49.532;2023-04-03T15:25:37;18.58;;;3.13;;
67130;SDS011;54051;53.464;49.532;2023-04-03T15:28:05;25.70;;;4.70;;
67130;SDS011;54051;53.464;49.532;2023-04-03T15:30:32;20.40;;;5.50;;
67130;SDS011;54051;53.464;49.532;2023-04-03T15:32:58;27.75;;;8.30;;
67130;SDS011;54051;53.464;49.532;2023-04-03T15:35:25;24.67;;;8.50;;
67130;SDS011;54051;53.464;49.532;2023-04-03T15:37:51;26.95;;;9.15;;
67130;SDS011;54051;53.464;49.532;2023-04-03T15:40:17;30.98;;;9.82;;
67130;SDS011;54051;53.464;49.532;2023-04-03T15:42:43;26.85;;;9.38;;
67130;SDS011;54051;53.464;49.532;2023-04-03T15:45:10;26.20;;;9.27;;
67130;SDS011;54051;53.464;49.532;2023-04-03T15:47:36;31.27;;;9.87;;
67130;SDS011;54051;53.464;49.532;2023-04-03T15:50:03;28.27;;;9.85;;
67130;SDS011;54051;53.464;49.532;2023-04-03T15:52:32;32.13;;;11.55;;
67130;SDS011;54051;53.464;49.532;2023-04-03T15:54:58;37.00;;;13.00;;
67130;SDS011;54051;53.464;49.532;2023-04-03T15:57:24;40.15;;;14.60;;
67130;SDS011;54051;53.464;49.532;2023-04-03T15:59:52;40.30;;;15.35;;
67130;SDS011;54051;53.464;49.532;2023-04-03T16:02:18;40.20;;;17.47;;
67130;SDS011;54051;53.464;49.532;2023-04-03T16:07:38;30.33;;;10.82;;
67130;SDS011;54051;53.464;49.532;2023-04-03T16:10:06;25.92;;;9.68;;
67130;SDS011;54051;53.464;49.532;2023-04-03T16:12:33;28.70;;;11.18;;
67130;SDS011;54051;53.464;49.532;2023-04-03T16:14:59;46.65;;;12.75;;
67130;SDS011;54051;53.464;49.532;2023-04-03T16:17:25;35.15;;;12.10;;
67130;SDS011;54051;53.464;49.532;2023-04-03T16:19:53;40.60;;;13.57;;
67130;SDS011;54051;53.464;49.532;2023-04-03T16:22:21;34.10;;;12.43;;
67130;SDS011;54051;53.464;49.532;2023-04-03T16:24:50;34.88;;;12.45;;
67130;SDS011;54051;53.464;49.532;2023-04-03T16:27:16;34.72;;;11.40;;
67130;SDS011;54051;53.464;49.532;2023-04-03T16:29:42;29.10;;;10.52;;
67130;SDS011;54051;53.464;49.532;2023-04-03T16:32:08;23.15;;;9.43;;
67130;SDS011;54051;53.464;49.532;2023-04-03T16:34:35;24.13;;;8.82;;
67130;SDS011;54051;53.464;49.532;2023-04-03T16:37:01;23.83;;;7.40;;
67130;SDS011;54051;53.464;49.532;2023-04-03T16:39:27;23.23;;;7.88;;
67130;SDS011;54051;53.464;49.532;2023-04-03T16:41:53;22.75;;;8.27;;
67130;SDS011;54051;53.464;49.532;2023-04-03T16:44:19;28.07;;;8.30;;
67130;SDS011;54051;53.464;49.532;2023-04-03T16:46:45;27.05;;;8.38;;
67130;SDS011;54051;53.464;49.532;2023-04-03T16:49:11;22.38;;;7.68;;
67130;SDS011;54051;53.464;49.532;2023-04-03T16:51:37;21.63;;;7.68;;
67130;SDS011;54051;53.464;49.532;2023-04-03T16:54:04;18.30;;;7.05;;
67130;SDS011;54051;53.464;49.532;2023-04-03T16:56:30;20.38;;;6.25;;
67130;SDS011;54051;53.464;49.532;2023-04-03T17:01:23;20.93;;;5.60;;
67130;SDS011;54051;53.464;49.532;2023-04-03T17:03:49;18.67;;;5.72;;
67130;SDS011;54051;53.464;49.532;2023-04-03T17:06:16;17.98;;;5.32;;
67130;SDS011;54051;53.464;49.532;2023-04-03T17:08:45;13.27;;;4.60;;
67130;SDS011;54051;53.464;49.532;2023-04-03T17:11:13;16.27;;;3.80;;
67130;SDS011;54051;53.464;49.532;2023-04-03T17:16:07;18.60;;;4.88;;
67130;SDS011;54051;53.464;49.532;2023-04-03T17:18:35;13.93;;;3.75;;
67130;SDS011;54051;53.464;49.532;2023-04-03T17:21:02;14.52;;;3.83;;
67130;SDS011;54051;53.464;49.532;2023-04-03T17:23:29;12.25;;;3.95;;